Time;durP1;ratioP1;P1;durP2;ratioP2;P2;SDS_P1;SDS_P2;PMS_P1;PMS_P2;Temp;Humidity;BMP_temperature;BMP_pressure;BME280_temperature;BME280_humidity;BME280_pressure;Samples;Min_cycle;Max_cycle;Signal;HPM_P1;HPM_P2
2022/09/28 00:01:16;;;;;;;1999.90;999.90;;;16.10;99.90;;;;;;4992930;28;20022;-76
2022/09/28 00:03:42;;;;;;;1999.90;999.90;;;16.10;99.90;;;;;;4993444;28;20102;-76
2022/09/28 00:06:11;;;;;;;1999.90;999.90;;;16.20;99.90;;;;;;4993554;28;20129;-76
2022/09/28 00:08:37;;;;;;;1999.90;999.90;;;16.20;99.90;;;;;;4993591;28;20486;-76
2022/09/28 00:11:04;;;;;;;1999.90;999.90;;;16.30;99.90;;;;;;4993533;28;20052;-76
2022/09/28 00:13:31;;;;;;;1999.90;999.90;;;16.30;99.90;;;;;;4990794;28;20061;-76
2022/09/28 00:16:09;;;;;;;1999.90;999.90;;;16.40;99.90;;;;;;4974158;28;20387;-76
2022/09/28 00:18:35;;;;;;;1999.90;999.90;;;16.40;99.90;;;;;;4992614;28;20080;-76
2022/09/28 00:21:00;;;;;;;1999.90;999.90;;;16.50;99.90;;;;;;4993018;28;20027;-76
2022/09/28 00:23:26;;;;;;;1999.90;999.90;;;16.50;99.90;;;;;;4991855;28;20502;-80
2022/09/28 00:25:52;;;;;;;1999.90;999.90;;;16.60;99.90;;;;;;4993425;28;20046;-75
2022/09/28 00:28:17;;;;;;;1999.90;999.90;;;16.60;99.90;;;;;;4992155;28;20022;-77
2022/09/28 00:30:43;;;;;;;1999.90;999.90;;;16.60;99.90;;;;;;4992030;28;20168;-76
2022/09/28 00:33:08;;;;;;;1999.90;999.90;;;16.50;99.90;;;;;;4992771;28;20097;-77
2022/09/28 00:35:34;;;;;;;1999.90;999.90;;;16.40;99.90;;;;;;4993090;28;20481;-75
2022/09/28 00:38:01;;;;;;;1999.90;999.90;;;16.20;99.90;;;;;;4992998;28;20035;-76
2022/09/28 00:40:26;;;;;;;1999.90;999.90;;;16.10;99.90;;;;;;4991914;28;20098;-76
2022/09/28 00:42:52;;;;;;;1999.90;999.90;;;16.00;99.90;;;;;;4990984;28;20042;-75
2022/09/28 00:45:18;;;;;;;1999.90;999.90;;;16.00;99.90;;;;;;4992806;28;20030;-76
2022/09/28 00:47:54;;;;;;;1999.90;999.90;;;16.00;99.90;;;;;;4992637;28;20030;-76
2022/09/28 00:50:30;;;;;;;1999.90;999.90;;;16.00;99.90;;;;;;4993226;28;20025;-75
2022/09/28 00:53:02;;;;;;;1999.90;999.90;;;16.20;99.90;;;;;;4992828;28;20513;-76
2022/09/28 00:55:47;;;;;;;1999.90;999.90;;;16.30;99.90;;;;;;4992978;28;20509;-76
2022/09/28 00:58:26;;;;;;;1999.90;999.90;;;16.40;99.90;;;;;;4993087;28;20405;-76
2022/09/28 01:00:54;;;;;;;1999.90;999.90;;;16.40;99.90;;;;;;4990825;28;20054;-76
2022/09/28 01:03:19;;;;;;;1999.90;999.90;;;16.40;99.90;;;;;;4992297;28;20065;-79
2022/09/28 01:05:47;;;;;;;1999.90;999.90;;;16.50;99.90;;;;;;4992652;28;20077;-76
2022/09/28 01:08:14;;;;;;;1999.90;999.90;;;16.50;99.90;;;;;;4992954;28;20049;-75
2022/09/28 01:10:42;;;;;;;1999.90;999.90;;;16.50;99.90;;;;;;4992882;28;20030;-76
2022/09/28 01:13:08;;;;;;;1999.90;999.90;;;16.50;99.90;;;;;;4992694;28;20057;-75
2022/09/28 01:15:58;;;;;;;1999.90;999.90;;;16.60;99.90;;;;;;4972356;28;20200;-76
2022/09/28 01:19:02;;;;;;;1999.90;999.90;;;16.70;99.90;;;;;;4998633;28;20493;-77
2022/09/28 01:21:28;;;;;;;1999.90;999.90;;;16.60;99.90;;;;;;4992745;28;20046;-80
2022/09/28 01:24:31;;;;;;;1999.90;999.90;;;16.60;99.90;;;;;;4992466;28;20038;-76
2022/09/28 01:27:04;;;;;;;1999.90;999.90;;;16.60;99.90;;;;;;4992675;28;20050;-76
2022/09/28 01:29:39;;;;;;;;;;;16.60;99.90;;;;;;4993004;28;20029;-77
2022/09/28 01:32:36;;;;;;;1999.90;999.90;;;16.60;99.90;;;;;;4992717;28;19917;-76
2022/09/28 01:35:11;;;;;;;1999.90;999.90;;;16.50;99.90;;;;;;4992442;28;20034;-76
2022/09/28 01:37:53;;;;;;;1999.90;999.90;;;16.50;99.90;;;;;;4991877;28;20506;-76
2022/09/28 01:40:21;;;;;;;;;;;16.50;99.90;;;;;;4976172;28;20117;-79
2022/09/28 01:42:52;;;;;;;1999.90;999.90;;;16.50;99.90;;;;;;4971819;28;19913;-76
2022/09/28 01:45:27;;;;;;;1999.90;999.90;;;16.50;99.90;;;;;;4973198;28;20483;-77
2022/09/28 01:47:58;;;;;;;1999.90;999.90;;;16.60;99.90;;;;;;4972886;28;20410;-76
2022/09/28 01:50:27;;;;;;;1999.90;999.90;;;16.60;99.90;;;;;;4973227;28;20074;-76
2022/09/28 01:53:06;;;;;;;1999.90;999.90;;;16.50;99.90;;;;;;4973023;28;20033;-76
2022/09/28 01:55:41;;;;;;;1999.90;999.90;;;16.50;99.90;;;;;;4975109;28;20022;-76
2022/09/28 01:58:14;;;;;;;1999.90;999.90;;;16.50;99.90;;;;;;4976712;28;20486;-75
2022/09/28 02:00:44;;;;;;;1999.90;999.90;;;16.50;99.90;;;;;;4976068;28;20502;-76
2022/09/28 02:03:15;;;;;;;1999.90;999.90;;;16.50;99.90;;;;;;4975431;28;20026;-75
2022/09/28 02:05:51;;;;;;;1999.90;999.90;;;16.50;99.90;;;;;;4975044;28;20054;-75
2022/09/28 02:08:37;;;;;;;1999.90;999.90;;;16.50;99.90;;;;;;4976574;28;20411;-78
2022/09/28 02:11:14;;;;;;;1999.90;999.90;;;16.50;99.90;;;;;;4975069;28;20081;-75
2022/09/28 02:13:46;;;;;;;1999.90;999.90;;;16.50;99.90;;;;;;4975793;28;20015;-75
2022/09/28 02:16:28;;;;;;;1999.90;999.90;;;16.50;99.90;;;;;;4976387;28;20097;-76
2022/09/28 02:18:54;;;;;;;1999.90;999.90;;;16.50;99.90;;;;;;4995408;28;20489;-76
2022/09/28 02:21:26;;;;;;;1999.90;999.90;;;16.50;99.90;;;;;;4995289;28;20478;-75
2022/09/28 02:24:01;;;;;;;1999.90;999.90;;;16.50;99.90;;;;;;4994999;28;20018;-76
2022/09/28 02:26:31;;;;;;;1999.90;999.90;;;16.50;99.90;;;;;;4995683;28;20030;-75
2022/09/28 02:28:58;;;;;;;1999.90;999.90;;;16.30;99.90;;;;;;4995289;28;20489;-75
2022/09/28 02:31:24;;;;;;;1999.90;999.90;;;16.20;99.90;;;;;;4995443;28;20523;-75
2022/09/28 02:33:52;;;;;;;1999.90;999.90;;;16.10;99.90;;;;;;4995138;28;20022;-77
2022/09/28 02:36:18;;;;;;;1999.90;999.90;;;16.10;99.90;;;;;;4995501;28;20022;-76
2022/09/28 02:38:43;;;;;;;1999.90;999.90;;;16.10;99.90;;;;;;4995054;28;20378;-75
2022/09/28 02:41:34;;;;;;;1999.90;999.90;;;16.10;99.90;;;;;;4995175;28;20030;-76
2022/09/28 02:44:21;;;;;;;1999.90;999.90;;;16.10;99.90;;;;;;4995234;28;20062;-75
2022/09/28 02:47:09;;;;;;;1999.90;999.90;;;16.00;99.90;;;;;;4993771;28;20064;-76
2022/09/28 02:50:06;;;;;;;1999.90;999.90;;;16.00;99.90;;;;;;4993506;28;20065;-74
2022/09/28 02:52:58;;;;;;;1999.90;999.90;;;16.00;99.90;;;;;;4981078;28;20027;-74
2022/09/28 02:55:46;;;;;;;1999.90;999.90;;;16.00;99.90;;;;;;4975540;28;20034;-75
2022/09/28 02:58:24;;;;;;;1999.90;999.90;;;16.00;99.90;;;;;;4975305;28;20035;-75
2022/09/28 03:01:11;;;;;;;1999.90;999.90;;;16.00;99.90;;;;;;4975545;28;20030;-75
2022/09/28 03:03:42;;;;;;;1999.90;999.90;;;16.00;99.90;;;;;;4972837;28;20035;-76
2022/09/28 03:06:44;;;;;;;1999.90;999.90;;;16.00;99.90;;;;;;4974638;28;20161;-75
2022/09/28 03:09:12;;;;;;;1999.90;999.90;;;16.00;99.90;;;;;;4974155;28;20442;-76
2022/09/28 03:11:57;;;;;;;1999.90;999.90;;;15.90;99.90;;;;;;4974979;28;20027;-76
2022/09/28 03:14:23;;;;;;;1999.90;999.90;;;15.90;99.90;;;;;;4975449;28;20029;-78
2022/09/28 03:16:48;;;;;;;1999.90;999.90;;;15.90;99.90;;;;;;4978393;28;20488;-76
2022/09/28 03:19:17;;;;;;;1999.90;999.90;;;16.00;99.90;;;;;;4994140;28;20088;-76
2022/09/28 03:21:43;;;;;;;1999.90;999.90;;;15.90;99.90;;;;;;4993034;28;20034;-77
2022/09/28 03:24:10;;;;;;;1999.90;999.90;;;16.00;99.90;;;;;;4994494;28;20101;-76
2022/09/28 03:26:39;;;;;;;1999.90;999.90;;;16.00;99.90;;;;;;4994402;28;20030;-77
2022/09/28 03:29:05;;;;;;;1999.90;999.90;;;16.10;99.90;;;;;;4994113;28;20041;-78
2022/09/28 03:31:30;;;;;;;1999.90;999.90;;;16.10;99.90;;;;;;4992970;28;20026;-76
2022/09/28 03:33:56;;;;;;;1999.90;999.90;;;16.10;99.90;;;;;;4992762;28;20038;-76
2022/09/28 03:36:22;;;;;;;1999.90;999.90;;;16.10;99.90;;;;;;4994526;28;20041;-76
2022/09/28 03:38:50;;;;;;;1999.90;999.90;;;16.20;99.90;;;;;;4992287;28;20185;-78
2022/09/28 03:41:15;;;;;;;1999.90;999.90;;;16.20;99.90;;;;;;4994158;28;20105;-80
2022/09/28 03:43:41;;;;;;;1999.90;999.90;;;16.30;99.90;;;;;;4993968;28;20153;-76
2022/09/28 03:46:07;;;;;;;1999.90;999.90;;;16.30;99.90;;;;;;4994148;28;20084;-76
2022/09/28 03:48:34;;;;;;;1999.90;999.90;;;16.30;99.90;;;;;;4992545;28;20030;-76
2022/09/28 03:51:03;;;;;;;1999.90;999.90;;;16.30;99.90;;;;;;4992340;28;20157;-76
2022/09/28 03:53:29;;;;;;;1999.90;999.90;;;16.30;99.90;;;;;;4974534;28;20035;-78
2022/09/28 03:55:55;;;;;;;1999.90;999.90;;;16.30;99.90;;;;;;4973106;28;20113;-76
2022/09/28 03:58:21;;;;;;;1999.90;999.90;;;16.20;99.90;;;;;;4974699;28;20035;-75
2022/09/28 04:00:50;;;;;;;1999.90;999.90;;;16.20;99.90;;;;;;4974388;28;20062;-76
2022/09/28 04:03:16;;;;;;;1999.90;999.90;;;16.20;99.90;;;;;;4973504;28;20067;-76
2022/09/28 04:05:51;;;;;;;1999.90;999.90;;;16.20;99.90;;;;;;4973748;28;20086;-78
2022/09/28 04:08:18;;;;;;;1999.90;999.90;;;16.30;99.90;;;;;;4974454;28;20549;-76
2022/09/28 04:10:44;;;;;;;1999.90;999.90;;;16.40;99.90;;;;;;4974049;28;20027;-77
2022/09/28 04:13:09;;;;;;;1999.90;999.90;;;16.40;99.90;;;;;;4973973;28;20018;-76
2022/09/28 04:15:37;;;;;;;1999.90;999.90;;;16.40;99.90;;;;;;4974065;28;20035;-76
2022/09/28 04:18:03;;;;;;;1999.90;999.90;;;16.40;99.90;;;;;;4988205;28;20037;-81
2022/09/28 04:20:29;;;;;;;1999.90;999.90;;;16.40;99.90;;;;;;4993261;28;20034;-76
2022/09/28 04:22:56;;;;;;;1999.90;999.90;;;16.40;99.90;;;;;;4993305;28;20038;-76
2022/09/28 04:25:22;;;;;;;1999.90;999.90;;;16.50;99.90;;;;;;4993077;28;20034;-77
2022/09/28 04:30:32;;;;;;;1999.90;999.90;;;16.50;99.90;;;;;;4993848;28;20504;-79
2022/09/28 04:32:58;;;;;;;1999.90;999.90;;;16.60;99.90;;;;;;4993077;28;20022;-77
2022/09/28 04:35:23;;;;;;;1999.90;999.90;;;16.60;99.90;;;;;;4993241;28;20035;-76
2022/09/28 04:37:49;;;;;;;1999.90;999.90;;;16.60;99.90;;;;;;4992932;28;20022;-76
2022/09/28 04:40:15;;;;;;;1999.90;999.90;;;16.60;99.90;;;;;;4993183;28;20038;-77
2022/09/28 04:42:40;;;;;;;1999.90;999.90;;;16.60;99.90;;;;;;4993174;28;20042;-75
2022/09/28 04:45:07;;;;;;;1999.90;999.90;;;16.60;99.90;;;;;;4992020;28;20030;-76
2022/09/28 04:47:32;;;;;;;1999.90;999.90;;;16.60;99.90;;;;;;4992628;28;20034;-76
2022/09/28 04:49:58;;;;;;;1999.90;999.90;;;16.60;99.90;;;;;;4993048;28;20094;-76
2022/09/28 04:52:25;;;;;;;1999.90;999.90;;;16.60;99.90;;;;;;4980505;28;20027;-76
2022/09/28 04:54:51;;;;;;;1999.90;999.90;;;16.70;99.90;;;;;;4973512;28;20101;-77
2022/09/28 04:57:16;;;;;;;1999.90;999.90;;;16.60;99.90;;;;;;4973495;28;20490;-79
2022/09/28 04:59:42;;;;;;;1999.90;999.90;;;16.60;99.90;;;;;;4973425;28;20054;-80
2022/09/28 05:02:07;;;;;;;1999.90;999.90;;;16.50;99.90;;;;;;4973428;28;20077;-76
2022/09/28 05:04:33;;;;;;;1999.90;999.90;;;16.60;99.90;;;;;;4972714;28;20039;-76
2022/09/28 05:06:59;;;;;;;1999.90;999.90;;;16.60;99.90;;;;;;4972970;28;20050;-77
2022/09/28 05:09:24;;;;;;;1999.90;999.90;;;16.60;99.90;;;;;;4973149;28;20030;-76
2022/09/28 05:11:51;;;;;;;1999.90;999.90;;;16.60;99.90;;;;;;4973066;28;20023;-78
2022/09/28 05:14:20;;;;;;;1999.90;999.90;;;16.60;99.90;;;;;;4973394;28;20053;-75
2022/09/28 05:16:46;;;;;;;1999.90;999.90;;;16.60;99.90;;;;;;4977735;28;20030;-76
2022/09/28 05:19:12;;;;;;;1999.90;999.90;;;16.60;99.90;;;;;;4990963;28;20278;-80
2022/09/28 05:21:38;;;;;;;1999.90;999.90;;;16.60;99.90;;;;;;4992248;28;20397;-77
2022/09/28 05:24:06;;;;;;;1999.90;999.90;;;16.70;99.90;;;;;;4991085;28;20470;-80
2022/09/28 05:26:32;;;;;;;1999.90;999.90;;;16.70;99.90;;;;;;4992668;28;20081;-77
2022/09/28 05:28:58;;;;;;;1999.90;999.90;;;16.70;99.90;;;;;;4991144;28;20524;-76
2022/09/28 05:31:25;;;;;;;1999.90;999.90;;;16.70;99.90;;;;;;4995702;28;20027;-77
2022/09/28 05:33:52;;;;;;;1999.90;999.90;;;16.70;99.90;;;;;;4995508;28;20103;-76
2022/09/28 05:36:18;;;;;;;1999.90;999.90;;;16.80;99.90;;;;;;4981388;28;20019;-79
2022/09/28 05:38:44;;;;;;;1999.90;999.90;;;16.80;99.90;;;;;;4992617;28;20890;-78
2022/09/28 05:41:10;;;;;;;1999.90;999.90;;;16.80;99.90;;;;;;4994883;28;20121;-78
2022/09/28 05:43:37;;;;;;;1999.90;999.90;;;16.80;99.90;;;;;;4996054;28;20026;-76
2022/09/28 05:46:04;;;;;;;1999.90;999.90;;;16.70;99.90;;;;;;4982884;28;20022;-76
2022/09/28 05:48:29;;;;;;;1999.90;999.90;;;16.70;99.90;;;;;;4994073;28;20516;-79
2022/09/28 05:50:57;;;;;;;1999.90;999.90;;;16.70;99.90;;;;;;4989230;28;20023;-77
2022/09/28 05:53:23;;;;;;;1999.90;999.90;;;16.70;99.90;;;;;;4974652;28;20030;-76
2022/09/28 05:55:49;;;;;;;1999.90;999.90;;;16.70;99.90;;;;;;4974803;28;20030;-76
2022/09/28 05:58:15;;;;;;;1999.90;999.90;;;16.70;99.90;;;;;;4991126;28;20034;-76
2022/09/28 06:00:41;;;;;;;1999.90;999.90;;;16.60;99.90;;;;;;4995503;28;20030;-77
2022/09/28 06:03:10;;;;;;;1999.90;999.90;;;16.60;99.90;;;;;;4994160;28;20088;-78
2022/09/28 06:05:38;;;;;;;1999.90;999.90;;;16.70;99.90;;;;;;4993650;28;20081;-76
2022/09/28 06:08:05;;;;;;;1999.90;999.90;;;16.70;99.90;;;;;;4992525;28;20030;-75
2022/09/28 06:10:30;;;;;;;1999.90;999.90;;;16.70;99.90;;;;;;4990330;28;20019;-76
2022/09/28 06:12:57;;;;;;;1999.90;999.90;;;16.60;99.90;;;;;;4993440;28;20027;-77
2022/09/28 06:15:24;;;;;;;1999.90;999.90;;;16.50;99.90;;;;;;4988603;28;20014;-77
2022/09/28 06:18:00;;;;;;;1999.90;999.90;;;16.50;99.90;;;;;;4990691;28;20030;-79
2022/09/28 06:20:27;;;;;;;1999.90;999.90;;;16.50;99.90;;;;;;4984944;28;20027;-77
2022/09/28 06:22:54;;;;;;;1999.90;999.90;;;16.50;99.90;;;;;;4988310;28;20034;-77
2022/09/28 06:25:21;;;;;;;1999.90;999.90;;;16.60;99.90;;;;;;4987448;28;20026;-79
2022/09/28 06:27:57;;;;;;;1999.90;999.90;;;16.60;99.90;;;;;;4989841;28;20031;-77
2022/09/28 06:30:25;;;;;;;1999.90;999.90;;;16.50;99.90;;;;;;4984762;28;20029;-78
2022/09/28 06:32:56;;;;;;;1999.90;999.90;;;16.30;99.90;;;;;;4993279;28;20140;-74
2022/09/28 06:35:26;;;;;;;1999.90;999.90;;;16.00;99.90;;;;;;4991991;28;20104;-75
2022/09/28 06:37:52;;;;;;;1999.90;999.90;;;15.80;99.90;;;;;;4990186;28;20034;-77
2022/09/28 06:40:19;;;;;;;1999.90;999.90;;;15.70;99.90;;;;;;4987268;28;20413;-79
2022/09/28 06:42:54;;;;;;;1999.90;999.90;;;15.60;99.90;;;;;;4981191;28;20034;-78
2022/09/28 06:45:23;;;;;;;1999.90;999.90;;;15.50;99.90;;;;;;4989521;28;20552;-74
2022/09/28 06:47:56;;;;;;;1999.90;999.90;;;15.50;99.90;;;;;;4992064;28;20065;-75
2022/09/28 06:50:23;;;;;;;;;;;15.60;99.90;;;;;;4987464;28;20026;-74
2022/09/28 06:52:50;;;;;;;1999.90;999.90;;;15.60;99.90;;;;;;4990849;28;20301;-75
2022/09/28 06:55:16;;;;;;;1999.90;999.90;;;15.70;99.90;;;;;;4985993;28;20030;-76
2022/09/28 06:57:41;;;;;;;1999.90;999.90;;;15.80;99.90;;;;;;4987368;28;20089;-76
2022/09/28 07:00:07;;;;;;;1999.90;999.90;;;15.90;99.90;;;;;;4987378;28;20030;-74
2022/09/28 07:02:33;;;;;;;1999.90;999.90;;;15.90;99.90;;;;;;4986582;28;20031;-76
2022/09/28 07:04:59;;;;;;;1999.90;999.90;;;16.00;99.90;;;;;;4989155;28;20108;-75
2022/09/28 07:07:24;;;;;;;1999.90;999.90;;;16.00;99.90;;;;;;4988263;28;20056;-76
2022/09/28 07:09:54;;;;;;;1999.90;999.90;;;16.10;99.90;;;;;;4989399;28;20034;-76
2022/09/28 07:12:22;;;;;;;1999.90;999.90;;;16.10;99.90;;;;;;4991133;28;20023;-76
2022/09/28 07:14:48;;;;;;;1999.90;999.90;;;16.20;99.90;;;;;;4987837;28;20050;-76
2022/09/28 07:17:15;;;;;;;1999.90;999.90;;;16.10;99.90;;;;;;4984802;28;20036;-77
2022/09/28 07:19:40;;;;;;;1999.90;999.90;;;16.10;99.90;;;;;;4983029;28;20505;-79
2022/09/28 07:22:06;;;;;;;1999.90;999.90;;;16.20;99.90;;;;;;4976102;28;20027;-78
2022/09/28 07:24:31;;;;;;;1999.90;999.90;;;16.30;99.90;;;;;;4988724;28;20489;-77
2022/09/28 07:26:57;;;;;;;1999.90;999.90;;;16.50;99.90;;;;;;4990741;28;20033;-75
2022/09/28 07:29:23;;;;;;;1999.90;999.90;;;16.50;99.90;;;;;;4986601;28;20018;-76
2022/09/28 07:31:48;;;;;;;1999.90;999.90;;;16.30;99.90;;;;;;4982441;28;20023;-82
2022/09/28 07:34:14;;;;;;;1999.90;999.90;;;16.00;99.90;;;;;;4986045;28;20109;-83
2022/09/28 07:36:39;;;;;;;1999.90;999.90;;;15.90;99.90;;;;;;4985190;28;20030;-76
2022/09/28 07:39:05;;;;;;;1999.90;999.90;;;15.70;99.90;;;;;;4990149;28;20036;-76
2022/09/28 07:41:31;;;;;;;1999.90;999.90;;;15.60;99.90;;;;;;4982570;28;20038;-75
2022/09/28 07:44:07;;;;;;;1999.90;999.90;;;15.50;99.90;;;;;;4989195;28;20092;-81
2022/09/28 07:46:35;;;;;;;1999.90;999.90;;;15.60;99.90;;;;;;4986495;28;20092;-75
2022/09/28 07:49:04;;;;;;;1999.90;999.90;;;15.60;99.90;;;;;;4985243;28;20031;-81
2022/09/28 07:51:30;;;;;;;1999.90;999.90;;;15.70;99.90;;;;;;4986427;28;20068;-75
2022/09/28 07:53:56;;;;;;;1999.90;999.90;;;15.90;99.90;;;;;;4990724;28;20038;-75
2022/09/28 07:56:22;;;;;;;1999.90;999.90;;;16.00;99.90;;;;;;4988254;28;20022;-76
2022/09/28 07:58:51;;;;;;;1999.90;999.90;;;16.00;99.90;;;;;;4985041;28;20105;-77
2022/09/28 08:01:18;;;;;;;1999.90;999.90;;;16.10;99.90;;;;;;4986790;28;20041;-76
2022/09/28 08:03:45;;;;;;;1999.90;999.90;;;16.20;99.90;;;;;;4986855;28;20026;-78
2022/09/28 08:06:13;;;;;;;1999.90;999.90;;;16.40;99.90;;;;;;4988056;28;20049;-77
2022/09/28 08:08:42;;;;;;;1999.90;999.90;;;17.00;99.90;;;;;;4986878;28;20117;-76
2022/09/28 08:11:09;;;;;;;1999.90;999.90;;;16.90;99.90;;;;;;4986660;28;20030;-76
2022/09/28 08:13:36;;;;;;;1999.90;999.90;;;17.40;99.90;;;;;;4983361;28;20034;-76
2022/09/28 08:16:02;;;;;;;1999.90;999.90;;;18.50;99.90;;;;;;4984961;28;20440;-77
2022/09/28 08:18:29;;;;;;;1999.90;999.90;;;19.60;99.90;;;;;;4986420;28;20041;-79
2022/09/28 08:23:39;;;;;;;1999.90;999.90;;;19.20;99.90;;;;;;4988153;28;20089;-76
2022/09/28 08:26:05;;;;;;;1999.90;999.90;;;19.70;99.90;;;;;;4984682;28;20042;-77
2022/09/28 08:28:31;;;;;;;1999.90;999.90;;;20.90;99.90;;;;;;4988338;28;20035;-77
2022/09/28 08:31:00;;;;;;;1999.90;999.90;;;21.50;99.90;;;;;;4975876;28;20031;-77
2022/09/28 08:33:26;;;;;;;1999.90;999.90;;;21.90;99.90;;;;;;4977869;28;20022;-76
2022/09/28 08:35:56;;;;;;;1999.90;999.90;;;21.70;99.90;;;;;;4988505;28;20041;-77
2022/09/28 08:38:23;;;;;;;1999.90;999.90;;;20.80;99.90;;;;;;4989558;28;20072;-76
2022/09/28 08:41:16;;;;;;;1999.90;999.90;;;19.80;99.90;;;;;;4987816;28;20030;-78
2022/09/28 08:44:09;;;;;;;1999.90;999.90;;;19.60;99.90;;;;;;4983211;28;20401;-77
2022/09/28 08:46:41;;;;;;;1999.90;999.90;;;18.60;99.90;;;;;;4989607;28;20034;-76
2022/09/28 08:49:12;;;;;;;1999.90;999.90;;;18.10;99.90;;;;;;4989047;28;20034;-76
2022/09/28 08:51:44;;;;;;;1999.90;999.90;;;17.80;99.90;;;;;;4986043;28;20062;-79
2022/09/28 08:54:33;;;;;;;1999.90;999.90;;;17.90;99.90;;;;;;4983978;28;20054;-77
2022/09/28 08:57:16;;;;;;;1999.90;999.90;;;18.20;99.90;;;;;;4986623;28;20059;-75
2022/09/28 08:59:54;;;;;;;1999.90;999.90;;;18.70;99.90;;;;;;4986218;28;20026;-77
2022/09/28 09:02:33;;;;;;;1999.90;999.90;;;18.80;99.90;;;;;;4983261;28;20108;-77
2022/09/28 09:05:13;;;;;;;1999.90;999.90;;;19.70;99.90;;;;;;4987669;28;20112;-79
2022/09/28 09:07:59;;;;;;;1999.90;999.90;;;21.00;99.90;;;;;;4984939;28;20054;-77
2022/09/28 09:10:37;;;;;;;1999.90;999.90;;;22.20;99.90;;;;;;5001819;28;20540;-77
2022/09/28 09:13:17;;;;;;;1999.90;999.90;;;21.60;99.90;;;;;;4987311;28;20442;-78
2022/09/28 09:15:59;;;;;;;1999.90;999.90;;;20.50;99.90;;;;;;4985714;28;20134;-76
2022/09/28 09:18:50;;;;;;;1999.90;999.90;;;19.70;99.90;;;;;;4986276;28;20105;-78
2022/09/28 09:21:37;;;;;;;1999.90;999.90;;;19.10;99.90;;;;;;4986269;28;20046;-76
2022/09/28 09:24:17;;;;;;;1999.90;999.90;;;19.30;99.90;;;;;;4987481;28;20029;-76
2022/09/28 09:26:42;;;;;;;1999.90;999.90;;;19.50;99.90;;;;;;4989176;28;20038;-77
2022/09/28 09:29:39;;;;;;;1999.90;999.90;;;20.10;99.90;;;;;;4987032;28;20065;-78
2022/09/28 09:32:19;;;;;;;1999.90;999.90;;;20.40;99.90;;;;;;4983447;28;20429;-77
2022/09/28 09:35:10;;;;;;;1999.90;999.90;;;19.70;99.90;;;;;;4987691;28;20038;-76
2022/09/28 09:38:01;;;;;;;1999.90;999.90;;;19.40;99.90;;;;;;4981403;28;20074;-76
2022/09/28 09:40:46;;;;;;;1999.90;999.90;;;19.00;99.90;;;;;;4989096;28;20535;-76
2022/09/28 09:43:49;;;;;;;1999.90;999.90;;;19.10;99.90;;;;;;4987128;28;20117;-78
2022/09/28 09:46:31;;;;;;;1999.90;999.90;;;18.60;99.90;;;;;;4988908;28;20517;-76
2022/09/28 09:48:59;;;;;;;1999.90;999.90;;;18.20;99.90;;;;;;4985466;28;20434;-76
2022/09/28 09:51:30;;;;;;;1999.90;999.90;;;18.20;99.90;;;;;;4989179;28;20038;-76
2022/09/28 09:54:00;;;;;;;1999.90;999.90;;;18.40;99.90;;;;;;4979860;28;20445;-77
2022/09/28 09:56:38;;;;;;;1999.90;999.90;;;18.90;99.90;;;;;;4987584;28;20034;-78
2022/09/28 09:59:12;;;;;;;1999.90;999.90;;;19.10;99.90;;;;;;4985192;28;20030;-78
2022/09/28 10:01:39;;;;;;;1999.90;999.90;;;18.80;99.90;;;;;;4983019;28;20092;-76
2022/09/28 10:04:39;;;;;;;1999.90;999.90;;;19.10;99.90;;;;;;4980726;28;20048;-76
2022/09/28 10:07:07;;;;;;;1999.90;999.90;;;19.30;99.90;;;;;;4984358;28;20553;-76
2022/09/28 10:09:45;;;;;;;1999.90;999.90;;;19.20;99.90;;;;;;4983753;28;20057;-80
2022/09/28 10:12:19;;;;;;;1999.90;999.90;;;18.90;99.90;;;;;;4988870;28;20018;-75
2022/09/28 10:14:45;;;;;;;1999.90;999.90;;;18.90;99.90;;;;;;4987368;28;20027;-76
2022/09/28 10:17:15;;;;;;;1999.90;999.90;;;18.90;99.90;;;;;;4985811;28;20489;-79
2022/09/28 10:19:41;;;;;;;1999.90;999.90;;;19.30;99.90;;;;;;4991613;28;20081;-74
2022/09/28 10:22:14;;;;;;;1999.90;999.90;;;19.40;99.90;;;;;;4991479;28;20104;-77
2022/09/28 10:24:45;;;;;;;;;;;19.70;99.90;;;;;;4992113;28;20029;-76
2022/09/28 10:27:17;;;;;;;1999.90;999.90;;;19.60;99.90;;;;;;4991205;28;19921;-76
2022/09/28 10:29:50;;;;;;;1999.90;999.90;;;19.30;99.90;;;;;;4986915;28;20041;-76
2022/09/28 10:32:19;;;;;;;1999.90;999.90;;;19.20;99.90;;;;;;4988507;28;20014;-75
2022/09/28 10:34:44;;;;;;;1999.90;999.90;;;19.00;99.90;;;;;;4986896;28;20022;-79
2022/09/28 10:37:11;;;;;;;1999.90;999.90;;;19.30;99.90;;;;;;4984937;28;20089;-80
2022/09/28 10:39:45;;;;;;;1999.90;999.90;;;19.70;99.90;;;;;;4985662;28;20464;-79
2022/09/28 10:42:18;;;;;;;1999.90;999.90;;;19.60;99.90;;;;;;4983986;28;20026;-76
2022/09/28 10:44:50;;;;;;;1999.90;999.90;;;19.50;99.90;;;;;;4989764;28;20038;-77
2022/09/28 10:47:19;;;;;;;1999.90;999.90;;;19.60;99.90;;;;;;4987750;28;20557;-76
2022/09/28 10:49:47;;;;;;;1999.90;999.90;;;19.40;99.90;;;;;;4995187;28;20113;-78
2022/09/28 10:52:30;;;;;;;1999.90;999.90;;;19.00;99.90;;;;;;4981102;28;20121;-75
2022/09/28 10:54:56;;;;;;;1999.90;999.90;;;18.50;99.90;;;;;;4989548;28;20045;-77
2022/09/28 10:57:36;;;;;;;1999.90;999.90;;;18.80;99.90;;;;;;4991835;28;20026;-77
2022/09/28 11:00:05;;;;;;;1999.90;999.90;;;19.20;99.90;;;;;;4983488;28;20106;-78
2022/09/28 11:02:36;;;;;;;1999.90;999.90;;;19.30;99.90;;;;;;4989681;28;20034;-77
2022/09/28 11:05:04;;;;;;;1999.90;999.90;;;19.50;99.90;;;;;;4992051;28;20093;-76
2022/09/28 11:07:32;;;;;;;1999.90;999.90;;;19.60;99.90;;;;;;4991955;28;20054;-76
2022/09/28 11:09:59;;;;;;;1999.90;999.90;;;19.50;99.90;;;;;;4989700;28;20448;-76
2022/09/28 11:12:32;;;;;;;1999.90;999.90;;;18.90;99.90;;;;;;4992031;28;20030;-76
2022/09/28 11:15:06;;;;;;;1999.90;999.90;;;18.50;99.90;;;;;;4990968;28;20022;-76
2022/09/28 11:17:42;;;;;;;1999.90;999.90;;;18.40;99.90;;;;;;4991319;28;20064;-76
2022/09/28 11:20:25;;;;;;;1999.90;999.90;;;18.50;99.90;;;;;;4989082;28;20027;-76
2022/09/28 11:22:56;;;;;;;1999.90;999.90;;;18.70;99.90;;;;;;4988974;28;20327;-76
2022/09/28 11:25:25;;;;;;;1999.90;999.90;;;18.70;99.90;;;;;;4991361;28;20817;-76
2022/09/28 11:27:50;;;;;;;1999.90;999.90;;;18.90;99.90;;;;;;4990395;28;20047;-76
2022/09/28 11:30:29;;;;;;;1999.90;999.90;;;18.60;99.90;;;;;;4987298;28;20057;-76
2022/09/28 11:33:29;;;;;;;1999.90;999.90;;;18.50;99.90;;;;;;4981885;28;20026;-75
2022/09/28 11:36:20;;;;;;;1999.90;999.90;;;18.40;99.90;;;;;;4983422;28;20034;-77
2022/09/28 11:39:10;;;;;;;1999.90;999.90;;;18.60;99.90;;;;;;4988467;28;20026;-76
2022/09/28 11:41:45;;;;;;;1999.90;999.90;;;18.70;99.90;;;;;;4982739;28;20032;-77
2022/09/28 11:44:43;;;;;;;1999.90;999.90;;;18.40;99.90;;;;;;4988529;28;20022;-75
2022/09/28 11:47:20;;;;;;;1999.90;999.90;;;18.40;99.90;;;;;;4976467;28;20038;-79
2022/09/28 11:49:54;;;;;;;1999.90;999.90;;;18.60;99.90;;;;;;4987833;28;20083;-75
2022/09/28 11:52:27;;;;;;;1999.90;999.90;;;18.90;99.90;;;;;;4986673;28;20022;-78
2022/09/28 11:54:58;;;;;;;1999.90;999.90;;;18.90;99.90;;;;;;4984428;28;20486;-78
2022/09/28 11:57:36;;;;;;;1999.90;999.90;;;18.60;99.90;;;;;;4982215;28;20061;-76
2022/09/28 12:00:11;;;;;;;1999.90;999.90;;;18.50;99.90;;;;;;4978369;28;20516;-75
2022/09/28 12:02:47;;;;;;;1999.90;999.90;;;18.40;99.90;;;;;;4989139;28;20018;-75
2022/09/28 12:05:25;;;;;;;1999.90;999.90;;;18.20;99.90;;;;;;4981925;28;20026;-76
2022/09/28 12:07:58;;;;;;;1999.90;999.90;;;18.20;99.90;;;;;;4988061;28;20092;-75
2022/09/28 12:10:47;;;;;;;1999.90;999.90;;;18.40;99.90;;;;;;4986451;28;20494;-75
2022/09/28 12:13:21;;;;;;;1999.90;999.90;;;18.10;99.90;;;;;;4987752;28;20018;-76
2022/09/28 12:16:22;;;;;;;1999.90;999.90;;;18.10;99.90;;;;;;4988418;28;20054;-76
2022/09/28 12:19:09;;;;;;;1999.90;999.90;;;18.10;99.90;;;;;;4967329;28;20046;-75
2022/09/28 12:21:37;;;;;;;1999.90;999.90;;;18.20;99.90;;;;;;4967055;28;20530;-77
2022/09/28 12:24:13;;;;;;;1999.90;999.90;;;18.40;99.90;;;;;;4963946;28;20049;-75
2022/09/28 12:26:50;;;;;;;1999.90;999.90;;;18.40;99.90;;;;;;4966322;28;20046;-75
2022/09/28 12:29:28;;;;;;;1999.90;999.90;;;18.90;99.90;;;;;;4965068;28;20027;-75